Time;durP1;ratioP1;P1;durP2;ratioP2;P2;SDS_P1;SDS_P2;PMS_P1;PMS_P2;Temp;Humidity;BMP_temperature;BMP_pressure;BME280_temperature;BME280_humidity;BME280_pressure;Samples;Min_cycle;Max_cycle;Signal;HPM_P1;HPM_P2
2022/06/09 00:01:22;;;;;;;1.77;1.50;;;13.20;99.90;;;;;;497246;239;28713;-72
2022/06/09 00:03:22;;;;;;;1.30;1.30;;;13.20;99.90;;;;;;497170;239;28618;-72
2022/06/09 00:05:23;;;;;;;3.17;1.43;;;13.20;99.90;;;;;;497262;239;28663;-72
2022/06/09 00:07:25;;;;;;;1.70;1.60;;;13.20;99.90;;;;;;497257;239;28090;-74
2022/06/09 00:09:26;;;;;;;1.80;1.70;;;13.20;99.90;;;;;;497244;239;28274;-72
2022/06/09 00:11:27;;;;;;;1.90;1.60;;;13.20;99.90;;;;;;497274;239;28257;-72
2022/06/09 00:13:28;;;;;;;1.60;1.50;;;13.20;99.90;;;;;;497232;239;28855;-72
2022/06/09 00:15:31;;;;;;;1.40;1.40;;;;;;;;;;497255;239;28183;-73
2022/06/09 00:17:33;;;;;;;1.50;1.50;;;;;;;;;;497252;239;27700;-72
2022/06/09 00:19:34;;;;;;;1.50;1.40;;;13.20;99.90;;;;;;497165;239;27011;-72
2022/06/09 00:21:35;;;;;;;1.60;1.53;;;13.20;99.90;;;;;;497208;239;28827;-72
2022/06/09 00:23:37;;;;;;;1.70;1.60;;;13.20;99.90;;;;;;497233;239;28673;-74
2022/06/09 00:25:38;;;;;;;1.70;1.67;;;13.20;99.90;;;;;;497285;239;28657;-72
2022/06/09 00:27:40;;;;;;;1.40;1.40;;;13.20;99.90;;;;;;497254;239;28656;-72
2022/06/09 00:29:41;;;;;;;1.73;1.37;;;13.20;99.90;;;;;;497178;239;28597;-72
2022/06/09 00:31:42;;;;;;;1.70;1.60;;;13.10;99.90;;;;;;497207;239;28247;-73
2022/06/09 00:33:43;;;;;;;1.60;1.50;;;13.10;99.90;;;;;;497199;239;28398;-72
2022/06/09 00:35:44;;;;;;;1.63;1.63;;;13.10;99.90;;;;;;497248;239;28157;-72
2022/06/09 00:37:46;;;;;;;1.80;1.60;;;13.10;99.90;;;;;;497253;239;28195;-74
2022/06/09 00:39:47;;;;;;;1.53;1.53;;;13.10;99.90;;;;;;497202;239;28301;-72
2022/06/09 00:41:48;;;;;;;1.90;1.80;;;13.20;99.90;;;;;;497230;239;28301;-72
2022/06/09 00:43:49;;;;;;;2.07;1.97;;;13.20;99.90;;;;;;497211;239;28205;-72
2022/06/09 00:45:51;;;;;;;1.70;1.60;;;13.10;99.90;;;;;;497234;239;28217;-73
2022/06/09 00:47:52;;;;;;;1.60;1.50;;;13.10;99.90;;;;;;497237;239;28265;-72
2022/06/09 00:49:53;;;;;;;1.80;1.70;;;13.00;99.90;;;;;;497193;239;28817;-72
2022/06/09 00:51:54;;;;;;;2.23;1.50;;;13.00;99.90;;;;;;497225;239;28722;-72
2022/06/09 00:53:56;;;;;;;1.60;1.50;;;13.00;99.90;;;;;;497162;239;30590;-73
2022/06/09 00:55:57;;;;;;;1.60;1.60;;;13.10;99.90;;;;;;497239;239;28187;-73
2022/06/09 00:57:58;;;;;;;1.77;1.67;;;13.00;99.90;;;;;;497238;239;28078;-73
2022/06/09 01:00:01;;;;;;;1.67;1.67;;;13.10;99.90;;;;;;497196;239;28268;-72
2022/06/09 01:02:01;;;;;;;1.70;1.60;;;13.10;99.90;;;;;;497117;239;28187;-73
2022/06/09 01:04:02;;;;;;;4.07;1.97;;;13.10;99.90;;;;;;497212;239;28338;-72
2022/06/09 01:06:04;;;;;;;1.80;1.70;;;;;;;;;;497229;239;28201;-74
2022/06/09 01:08:05;;;;;;;3.13;1.93;;;13.10;99.90;;;;;;497211;239;27384;-73
2022/06/09 01:10:07;;;;;;;2.40;2.20;;;13.00;99.90;;;;;;497154;239;28795;-72
2022/06/09 01:12:08;;;;;;;2.33;2.13;;;13.00;99.90;;;;;;497192;239;28191;-72
2022/06/09 01:14:12;;;;;;;2.10;1.80;;;13.00;99.90;;;;;;497190;239;28252;-72
2022/06/09 01:16:10;;;;;;;2.40;2.20;;;13.00;99.90;;;;;;497086;239;28385;-73
2022/06/09 01:18:13;;;;;;;1.90;1.67;;;;;;;;;;497208;239;28199;-72
2022/06/09 01:20:14;;;;;;;2.10;2.00;;;13.00;99.90;;;;;;497188;239;29300;-72
2022/06/09 01:22:15;;;;;;;2.00;1.90;;;13.00;99.90;;;;;;497231;239;28752;-73
2022/06/09 01:24:17;;;;;;;2.30;1.83;;;13.00;99.90;;;;;;497199;239;28261;-73
2022/06/09 01:26:18;;;;;;;2.40;2.20;;;13.00;99.90;;;;;;497226;239;28195;-73
2022/06/09 01:28:20;;;;;;;3.10;2.10;;;;;;;;;;497211;239;28507;-72
2022/06/09 01:30:22;;;;;;;3.47;2.37;;;12.90;99.90;;;;;;497207;239;27524;-72
2022/06/09 01:32:23;;;;;;;2.20;2.03;;;12.80;99.90;;;;;;497273;239;28722;-73
2022/06/09 01:34:24;;;;;;;2.00;1.90;;;12.80;99.90;;;;;;497198;239;28024;-72
2022/06/09 01:36:25;;;;;;;2.20;2.00;;;12.80;99.90;;;;;;497232;239;28388;-72
2022/06/09 01:38:27;;;;;;;1.90;1.80;;;12.70;99.90;;;;;;497194;239;29109;-72
2022/06/09 01:40:28;;;;;;;3.60;2.53;;;12.60;99.90;;;;;;497229;239;28511;-73
2022/06/09 01:42:29;;;;;;;2.40;2.20;;;12.60;99.90;;;;;;497260;239;28916;-73
2022/06/09 01:44:30;;;;;;;2.50;2.37;;;12.70;99.90;;;;;;497211;239;28380;-72
2022/06/09 01:46:32;;;;;;;2.10;2.00;;;12.60;99.90;;;;;;497226;239;28571;-72
2022/06/09 01:48:33;;;;;;;2.00;1.90;;;12.60;99.90;;;;;;497205;239;28429;-72
2022/06/09 01:50:34;;;;;;;2.60;2.40;;;12.50;99.90;;;;;;497141;239;29033;-72
2022/06/09 01:52:35;;;;;;;2.40;2.30;;;12.40;99.90;;;;;;497250;239;28718;-75
2022/06/09 01:54:37;;;;;;;2.40;2.27;;;12.40;99.90;;;;;;497199;239;28922;-72
2022/06/09 01:56:39;;;;;;;2.00;1.90;;;12.40;99.90;;;;;;497202;239;28394;-73
2022/06/09 01:58:39;;;;;;;2.67;2.10;;;12.40;99.90;;;;;;497120;239;28558;-74
2022/06/09 02:00:40;;;;;;;1.93;1.83;;;12.40;99.90;;;;;;497212;239;28370;-72
2022/06/09 02:02:42;;;;;;;2.00;1.90;;;12.40;99.90;;;;;;497229;239;28473;-74
2022/06/09 02:04:43;;;;;;;2.13;2.00;;;12.40;99.90;;;;;;497201;239;28346;-73
2022/06/09 02:06:44;;;;;;;3.60;2.10;;;12.40;99.90;;;;;;497195;239;28149;-73
2022/06/09 02:08:45;;;;;;;2.20;2.10;;;12.40;99.90;;;;;;497190;239;28496;-72
2022/06/09 02:10:47;;;;;;;2.30;2.10;;;12.40;99.90;;;;;;497200;239;28783;-72
2022/06/09 02:12:48;;;;;;;2.90;2.40;;;12.50;99.90;;;;;;497204;239;28772;-73
2022/06/09 02:14:49;;;;;;;2.00;1.90;;;12.40;99.90;;;;;;495158;235;28744;-72
2022/06/09 02:16:50;;;;;;;2.17;2.00;;;12.40;99.90;;;;;;489939;241;28588;-73
2022/06/09 02:18:52;;;;;;;2.43;2.00;;;12.40;99.90;;;;;;492832;240;29109;-73
2022/06/09 02:20:53;;;;;;;2.17;2.07;;;12.30;99.90;;;;;;492809;240;28042;-72
2022/06/09 02:22:54;;;;;;;2.37;2.17;;;12.30;99.90;;;;;;492826;240;28236;-73
2022/06/09 02:24:55;;;;;;;2.80;2.30;;;12.30;99.90;;;;;;493021;240;28489;-72
2022/06/09 02:26:57;;;;;;;4.17;2.13;;;12.30;99.90;;;;;;493083;240;28545;-72
2022/06/09 02:28:58;;;;;;;3.37;1.97;;;12.30;99.90;;;;;;493083;240;28768;-74
2022/06/09 02:30:59;;;;;;;2.30;2.10;;;12.40;99.90;;;;;;493054;240;28411;-72
2022/06/09 02:33:00;;;;;;;2.20;2.10;;;12.40;99.90;;;;;;493074;240;28429;-72
2022/06/09 02:35:02;;;;;;;1.90;1.80;;;12.40;99.90;;;;;;493048;240;28504;-73
2022/06/09 02:37:03;;;;;;;2.13;2.00;;;12.40;99.90;;;;;;493092;240;28937;-72
2022/06/09 02:39:05;;;;;;;3.13;2.47;;;12.30;99.90;;;;;;493092;240;28768;-75
2022/06/09 02:41:06;;;;;;;2.60;2.40;;;12.30;99.90;;;;;;492993;240;28409;-73
2022/06/09 02:43:07;;;;;;;2.00;1.90;;;12.30;99.90;;;;;;493049;240;28751;-73
2022/06/09 02:45:08;;;;;;;2.23;1.93;;;12.40;99.90;;;;;;493078;240;28620;-72
2022/06/09 02:47:10;;;;;;;2.40;2.20;;;12.40;99.90;;;;;;493057;240;28354;-73
2022/06/09 02:49:10;;;;;;;2.10;1.93;;;12.40;99.90;;;;;;493019;241;28105;-75
2022/06/09 02:51:13;;;;;;;1.90;1.80;;;;;;;;;;493069;240;27934;-73
2022/06/09 02:53:14;;;;;;;2.67;2.20;;;12.30;99.90;;;;;;493088;241;27491;-72
2022/06/09 02:55:15;;;;;;;1.80;1.70;;;12.30;99.90;;;;;;493027;240;28328;-72
2022/06/09 02:57:17;;;;;;;1.90;1.80;;;12.30;99.90;;;;;;493099;240;28187;-74
2022/06/09 02:59:18;;;;;;;1.97;1.87;;;12.30;99.90;;;;;;493087;240;28227;-72
2022/06/09 03:01:19;;;;;;;4.13;2.20;;;12.20;99.90;;;;;;493060;240;28314;-72
2022/06/09 03:03:20;;;;;;;2.20;2.10;;;12.20;99.90;;;;;;493070;240;27962;-72
2022/06/09 03:05:22;;;;;;;2.00;1.87;;;12.20;99.90;;;;;;493047;240;28202;-73
2022/06/09 03:07:24;;;;;;;2.10;2.00;;;12.10;99.90;;;;;;493096;240;28451;-74
2022/06/09 03:09:24;;;;;;;2.13;2.03;;;12.10;99.90;;;;;;493025;240;28291;-72
2022/06/09 03:11:25;;;;;;;2.57;2.30;;;12.10;99.90;;;;;;493054;240;29270;-73
2022/06/09 03:13:27;;;;;;;1.93;1.83;;;12.00;99.90;;;;;;493072;240;28620;-72
2022/06/09 03:15:28;;;;;;;2.40;2.30;;;12.00;99.90;;;;;;493085;240;28543;-72
2022/06/09 03:17:29;;;;;;;2.07;1.93;;;12.10;99.90;;;;;;493105;240;29328;-74
2022/06/09 03:19:30;;;;;;;1.97;1.87;;;12.10;99.90;;;;;;493120;240;28071;-72
2022/06/09 03:21:32;;;;;;;2.10;2.00;;;12.10;99.90;;;;;;493089;240;28499;-72
2022/06/09 03:23:33;;;;;;;2.60;2.13;;;12.10;99.90;;;;;;493110;240;28072;-72
2022/06/09 03:25:34;;;;;;;2.10;1.93;;;12.10;99.90;;;;;;493054;240;28470;-72
2022/06/09 03:27:35;;;;;;;2.73;2.20;;;12.20;99.90;;;;;;493095;240;29010;-74
2022/06/09 03:29:37;;;;;;;2.40;2.20;;;12.10;99.90;;;;;;493099;240;28540;-73
2022/06/09 03:31:38;;;;;;;2.70;2.50;;;12.20;99.90;;;;;;493058;240;28720;-73
2022/06/09 03:33:39;;;;;;;2.50;2.30;;;12.20;99.90;;;;;;493076;240;28658;-72
2022/06/09 03:35:40;;;;;;;2.63;2.40;;;12.20;99.90;;;;;;493044;240;28175;-72
2022/06/09 03:37:42;;;;;;;2.57;2.37;;;12.30;99.90;;;;;;493092;240;28222;-75
2022/06/09 03:39:43;;;;;;;2.70;2.30;;;12.30;99.90;;;;;;493089;240;27985;-72
2022/06/09 03:41:44;;;;;;;3.30;2.97;;;12.30;99.90;;;;;;493042;240;28441;-73
2022/06/09 03:43:45;;;;;;;2.70;2.50;;;12.30;99.90;;;;;;493088;240;28309;-72
2022/06/09 03:45:47;;;;;;;2.93;2.40;;;12.30;99.90;;;;;;493056;240;28073;-72
2022/06/09 03:47:48;;;;;;;3.43;3.13;;;12.30;99.90;;;;;;493082;240;28195;-74
2022/06/09 03:49:49;;;;;;;3.87;2.90;;;12.30;99.90;;;;;;493079;240;28510;-73
2022/06/09 03:51:50;;;;;;;5.03;2.80;;;12.30;99.90;;;;;;493048;240;29308;-72
2022/06/09 03:53:52;;;;;;;2.60;2.50;;;12.30;99.90;;;;;;493072;240;28392;-72
2022/06/09 03:55:53;;;;;;;3.20;2.90;;;12.40;99.90;;;;;;492996;240;28478;-72
2022/06/09 03:57:54;;;;;;;3.93;3.00;;;12.40;99.90;;;;;;493113;240;28466;-74
2022/06/09 03:59:55;;;;;;;5.73;4.00;;;12.30;99.90;;;;;;493093;240;28073;-72
2022/06/09 04:01:57;;;;;;;5.40;3.20;;;12.30;99.90;;;;;;493060;240;27968;-72
2022/06/09 04:03:58;;;;;;;5.83;3.13;;;12.30;99.90;;;;;;493083;240;28322;-72
2022/06/09 04:05:59;;;;;;;3.77;3.23;;;12.20;99.90;;;;;;493058;240;28071;-72
2022/06/09 04:08:02;;;;;;;4.00;3.60;;;;;;;;;;493078;240;28689;-72
2022/06/09 04:10:03;;;;;;;3.90;3.60;;;12.20;99.90;;;;;;493098;241;27074;-73
2022/06/09 04:12:04;;;;;;;4.40;3.27;;;12.20;99.90;;;;;;492884;241;28478;-72
2022/06/09 04:14:05;;;;;;;3.70;3.00;;;12.10;99.90;;;;;;493056;240;28539;-72
2022/06/09 04:16:07;;;;;;;6.60;3.60;;;12.10;99.90;;;;;;493045;240;28251;-75
2022/06/09 04:18:08;;;;;;;4.13;3.60;;;12.20;99.90;;;;;;493072;240;28057;-72
2022/06/09 04:20:10;;;;;;;3.67;3.37;;;12.20;99.90;;;;;;493048;241;28432;-73
2022/06/09 04:22:10;;;;;;;6.40;4.10;;;12.20;99.90;;;;;;493034;240;28752;-72
2022/06/09 04:24:12;;;;;;;3.90;3.60;;;12.20;99.90;;;;;;493073;240;28445;-73
2022/06/09 04:26:13;;;;;;;3.80;3.40;;;12.20;99.90;;;;;;493036;240;29096;-74
2022/06/09 04:28:14;;;;;;;4.03;3.20;;;12.20;99.90;;;;;;493077;240;28667;-72
2022/06/09 04:30:15;;;;;;;4.33;3.20;;;12.20;99.90;;;;;;493086;240;28706;-73
2022/06/09 04:32:17;;;;;;;3.87;3.57;;;12.30;99.90;;;;;;493013;240;28870;-72
2022/06/09 04:34:18;;;;;;;3.47;2.97;;;12.30;99.90;;;;;;493092;241;28326;-72
2022/06/09 04:36:19;;;;;;;3.40;3.20;;;12.30;99.90;;;;;;493055;240;28190;-73
2022/06/09 04:38:20;;;;;;;4.10;3.30;;;12.30;99.90;;;;;;493097;240;28271;-72
2022/06/09 04:40:22;;;;;;;5.70;3.40;;;12.30;99.90;;;;;;493148;240;28447;-72
2022/06/09 04:42:23;;;;;;;3.67;3.17;;;12.20;99.90;;;;;;493099;240;28390;-72
2022/06/09 04:44:24;;;;;;;4.70;3.87;;;12.30;99.90;;;;;;493094;240;28745;-72
2022/06/09 04:46:25;;;;;;;3.53;3.17;;;12.30;99.90;;;;;;493061;240;28232;-75
2022/06/09 04:48:27;;;;;;;7.07;3.43;;;12.30;99.90;;;;;;493076;240;29364;-73
2022/06/09 04:50:29;;;;;;;5.00;3.00;;;;;;;;;;493081;240;28609;-72
2022/06/09 04:52:30;;;;;;;4.80;4.20;;;12.30;99.90;;;;;;493038;241;26938;-72
2022/06/09 04:54:32;;;;;;;4.93;3.33;;;12.30;99.90;;;;;;493076;240;28517;-74
2022/06/09 04:56:33;;;;;;;3.73;3.30;;;12.30;99.90;;;;;;493053;240;28451;-73
2022/06/09 04:58:34;;;;;;;2.87;2.67;;;12.30;99.90;;;;;;493070;240;28457;-73
2022/06/09 05:00:35;;;;;;;4.10;3.37;;;12.30;99.90;;;;;;493071;240;28834;-72
2022/06/09 05:02:37;;;;;;;3.57;3.27;;;12.30;99.90;;;;;;493042;241;28903;-72
2022/06/09 05:04:38;;;;;;;5.63;3.30;;;12.30;99.90;;;;;;493089;240;28527;-73
2022/06/09 05:06:39;;;;;;;3.50;3.03;;;12.20;99.90;;;;;;495631;237;28820;-72
2022/06/09 05:08:42;;;;;;;5.40;3.60;;;;;;;;;;497223;239;28055;-73
2022/06/09 05:10:43;;;;;;;5.83;3.60;;;12.30;99.90;;;;;;497216;239;27077;-73
2022/06/09 05:12:44;;;;;;;3.77;3.47;;;12.30;99.90;;;;;;497178;239;29019;-72
2022/06/09 05:14:45;;;;;;;5.80;3.60;;;12.30;99.90;;;;;;497204;239;29297;-72
2022/06/09 05:16:47;;;;;;;4.77;3.40;;;12.40;99.90;;;;;;497220;239;28754;-72
2022/06/09 05:18:49;;;;;;;5.90;3.50;;;12.30;99.90;;;;;;497196;239;28517;-72
2022/06/09 05:20:49;;;;;;;8.47;4.03;;;12.10;99.90;;;;;;497196;239;28041;-73
2022/06/09 05:22:50;;;;;;;3.83;3.23;;;12.10;99.90;;;;;;497188;239;28367;-74
2022/06/09 05:24:52;;;;;;;9.27;3.90;;;12.20;99.90;;;;;;497205;239;28112;-72
2022/06/09 05:26:53;;;;;;;3.70;3.40;;;12.30;99.90;;;;;;497200;239;28299;-73
2022/06/09 05:28:55;;;;;;;3.40;3.10;;;12.30;99.90;;;;;;497153;239;28047;-72
2022/06/09 05:30:55;;;;;;;6.60;3.33;;;12.20;99.90;;;;;;497172;239;28855;-73
2022/06/09 05:32:57;;;;;;;3.77;3.40;;;12.10;99.90;;;;;;497166;239;28666;-75
2022/06/09 05:34:58;;;;;;;3.80;3.50;;;12.10;99.90;;;;;;497216;239;28996;-72
2022/06/09 05:36:59;;;;;;;3.40;3.10;;;12.10;99.90;;;;;;497191;238;29098;-72
2022/06/09 05:46:00;;;;;;;3.47;3.17;;;;;;;;;;497185;238;28366;-73
2022/06/09 05:48:01;;;;;;;3.53;2.80;;;12.10;99.90;;;;;;497227;239;27742;-73
2022/06/09 05:50:03;;;;;;;4.03;2.90;;;12.10;99.90;;;;;;497178;239;28462;-73
2022/06/09 05:52:04;;;;;;;5.83;3.00;;;12.10;99.90;;;;;;497214;239;28544;-72
2022/06/09 05:54:05;;;;;;;5.03;3.30;;;12.00;99.90;;;;;;497186;239;28896;-74
2022/06/09 05:56:06;;;;;;;8.43;3.30;;;11.90;99.90;;;;;;497200;239;28398;-72
2022/06/09 05:58:08;;;;;;;3.83;3.33;;;11.90;99.90;;;;;;497201;239;28492;-73
2022/06/09 06:00:09;;;;;;;5.13;3.27;;;12.10;99.90;;;;;;497152;239;28774;-72
2022/06/09 06:02:10;;;;;;;3.70;3.37;;;12.00;99.90;;;;;;497205;239;28335;-72
2022/06/09 06:04:11;;;;;;;3.63;2.93;;;12.10;99.90;;;;;;497229;239;28051;-74
2022/06/09 06:08:33;;;;;;;3.20;2.83;;;12.20;99.90;;;;;;497219;238;28463;-72
2022/06/09 06:10:34;;;;;;;2.87;2.67;;;12.20;99.90;;;;;;497151;239;28497;-73
2022/06/09 06:12:36;;;;;;;6.33;3.20;;;;;;;;;;497179;239;28479;-72
2022/06/09 06:14:38;;;;;;;6.03;3.27;;;12.10;99.90;;;;;;497230;239;27309;-75
2022/06/09 06:16:39;;;;;;;5.50;3.13;;;12.20;99.90;;;;;;497184;239;28318;-71
2022/06/09 06:18:40;;;;;;;7.63;3.20;;;12.10;99.90;;;;;;497215;239;28380;-74
2022/06/09 06:20:41;;;;;;;8.20;4.03;;;12.20;99.90;;;;;;500890;236;28457;-72
2022/06/09 06:22:43;;;;;;;5.63;3.50;;;12.20;99.90;;;;;;503659;236;28645;-72
2022/06/09 06:24:44;;;;;;;6.00;3.43;;;12.20;99.90;;;;;;503692;236;29314;-73
2022/06/09 06:26:45;;;;;;;5.70;3.70;;;12.20;99.90;;;;;;503674;236;28444;-72
2022/06/09 06:28:47;;;;;;;5.57;4.03;;;12.10;99.90;;;;;;503679;236;28771;-71
2022/06/09 06:30:48;;;;;;;5.07;4.00;;;12.00;99.90;;;;;;503720;236;28919;-72
2022/06/09 06:32:50;;;;;;;4.30;3.80;;;12.00;99.90;;;;;;503627;236;28814;-73
2022/06/09 06:34:50;;;;;;;6.03;4.37;;;12.00;99.90;;;;;;503704;236;28506;-75
2022/06/09 06:36:52;;;;;;;5.43;4.30;;;12.00;99.90;;;;;;503641;236;28350;-72
2022/06/09 06:38:53;;;;;;;4.83;4.33;;;12.00;99.90;;;;;;503745;236;28402;-73
2022/06/09 06:40:58;;;;;;;5.93;3.90;;;12.00;99.90;;;;;;503740;236;28071;-72
2022/06/09 06:42:55;;;;;;;4.57;3.83;;;12.00;99.90;;;;;;503567;236;28553;-72
2022/06/09 06:44:57;;;;;;;8.27;4.00;;;12.00;99.90;;;;;;503724;236;28943;-73
2022/06/09 06:46:58;;;;;;;4.40;3.70;;;12.00;99.90;;;;;;503725;236;29033;-73
2022/06/09 06:48:59;;;;;;;5.63;3.80;;;12.20;99.90;;;;;;503662;236;28673;-72
2022/06/09 06:51:02;;;;;;;5.17;3.80;;;;;;;;;;503629;236;28162;-72
2022/06/09 06:53:03;;;;;;;4.20;3.90;;;12.30;99.90;;;;;;503661;235;26962;-73
2022/06/09 06:55:04;;;;;;;4.73;3.67;;;12.20;99.90;;;;;;503412;236;28543;-72
2022/06/09 06:57:08;;;;;;;4.30;3.90;;;12.30;99.90;;;;;;503393;236;29395;-72
2022/06/09 06:59:07;;;;;;;4.63;3.50;;;12.30;99.90;;;;;;503417;236;28972;-74
2022/06/09 07:01:08;;;;;;;3.83;3.50;;;12.40;99.90;;;;;;503507;236;28612;-72
2022/06/09 07:03:09;;;;;;;6.43;3.70;;;12.50;99.90;;;;;;503425;236;28104;-74
2022/06/09 07:05:10;;;;;;;5.07;3.30;;;12.50;99.90;;;;;;503455;236;28459;-72
2022/06/09 07:07:12;;;;;;;3.50;3.17;;;12.60;99.90;;;;;;503512;236;28397;-73
2022/06/09 07:09:13;;;;;;;4.10;3.70;;;12.60;99.90;;;;;;503601;236;28190;-75
2022/06/09 07:11:14;;;;;;;4.10;3.80;;;12.50;99.90;;;;;;503675;236;28165;-72
2022/06/09 07:13:15;;;;;;;4.23;3.57;;;12.60;99.90;;;;;;503708;236;28902;-73
2022/06/09 07:15:17;;;;;;;10.03;3.73;;;12.70;99.90;;;;;;503737;236;28795;-72
2022/06/09 07:17:18;;;;;;;3.20;2.90;;;12.70;99.90;;;;;;503703;236;28308;-72
2022/06/09 07:19:19;;;;;;;4.47;3.40;;;12.70;99.90;;;;;;503748;236;28991;-74
2022/06/09 07:21:22;;;;;;;5.30;3.20;;;;;;;;;;503719;236;28599;-73
2022/06/09 07:23:24;;;;;;;2.87;2.67;;;12.90;99.90;;;;;;503750;235;26585;-72
2022/06/09 07:25:24;;;;;;;5.27;3.00;;;13.00;99.90;;;;;;503666;236;28196;-72
2022/06/09 07:27:25;;;;;;;5.53;2.57;;;13.00;99.90;;;;;;503722;236;28187;-74
2022/06/09 07:29:27;;;;;;;6.97;2.70;;;13.10;99.90;;;;;;503715;236;28309;-72
2022/06/09 07:31:28;;;;;;;7.37;2.63;;;13.00;99.90;;;;;;503722;236;28304;-72
2022/06/09 07:33:29;;;;;;;6.30;3.00;;;13.00;99.90;;;;;;503688;236;28696;-72
2022/06/09 07:35:30;;;;;;;4.87;2.57;;;13.10;99.90;;;;;;503715;236;28614;-72
2022/06/09 07:37:32;;;;;;;5.30;2.57;;;13.30;99.90;;;;;;503714;236;28990;-74
2022/06/09 07:39:33;;;;;;;6.73;2.57;;;13.40;99.90;;;;;;503750;236;28473;-72
2022/06/09 07:41:34;;;;;;;5.60;2.90;;;13.50;99.90;;;;;;503649;236;28445;-74
2022/06/09 07:43:35;;;;;;;3.63;2.50;;;13.80;99.90;;;;;;503473;236;28768;-72
2022/06/09 07:45:37;;;;;;;3.83;2.60;;;13.80;99.90;;;;;;503316;236;28530;-72
2022/06/09 07:47:38;;;;;;;4.30;2.37;;;13.70;99.90;;;;;;503242;236;28853;-73
2022/06/09 07:49:39;;;;;;;3.27;2.10;;;13.60;99.90;;;;;;503532;236;28310;-73
2022/06/09 07:51:40;;;;;;;5.27;2.70;;;13.50;99.90;;;;;;503726;236;28540;-73
2022/06/09 07:53:42;;;;;;;3.80;2.40;;;13.60;99.90;;;;;;503722;236;28874;-72
2022/06/09 07:55:43;;;;;;;6.13;2.83;;;13.70;99.90;;;;;;503705;236;28877;-72
2022/06/09 07:57:44;;;;;;;4.00;2.70;;;13.80;99.90;;;;;;503711;236;29014;-73
2022/06/09 07:59:45;;;;;;;4.73;2.33;;;13.70;99.90;;;;;;503741;236;29344;-72
2022/06/09 08:01:47;;;;;;;4.27;2.70;;;13.80;99.90;;;;;;503716;236;29304;-73
2022/06/09 08:03:48;;;;;;;2.70;2.43;;;13.80;99.90;;;;;;503734;236;28471;-72
2022/06/09 08:05:49;;;;;;;6.23;3.10;;;13.80;99.90;;;;;;503717;236;28808;-73
2022/06/09 08:07:50;;;;;;;4.20;2.53;;;14.00;99.90;;;;;;503767;236;28901;-76
2022/06/09 08:09:52;;;;;;;3.20;2.80;;;14.20;99.90;;;;;;503745;236;28796;-73
2022/06/09 08:11:53;;;;;;;4.83;2.80;;;14.40;99.90;;;;;;503729;236;28836;-73
2022/06/09 08:13:55;;;;;;;6.10;2.93;;;14.40;99.90;;;;;;503710;236;28759;-73
2022/06/09 08:15:55;;;;;;;7.47;2.60;;;14.40;99.90;;;;;;503694;236;28817;-73
2022/06/09 08:17:57;;;;;;;8.63;3.10;;;14.30;99.90;;;;;;503749;236;28914;-74
2022/06/09 08:19:58;;;;;;;6.53;2.60;;;14.50;99.90;;;;;;503755;236;28768;-72
2022/06/09 08:21:59;;;;;;;5.10;2.50;;;14.60;99.90;;;;;;503776;236;29342;-73
2022/06/09 08:24:00;;;;;;;6.23;3.07;;;14.60;99.90;;;;;;503730;236;30111;-72
2022/06/09 08:26:03;;;;;;;7.60;3.00;;;14.50;99.90;;;;;;503684;236;29290;-72
2022/06/09 08:28:03;;;;;;;4.10;2.60;;;14.40;99.90;;;;;;503682;236;29403;-72
2022/06/09 08:30:04;;;;;;;3.80;2.70;;;14.30;99.90;;;;;;503688;236;28770;-72
2022/06/09 08:32:05;;;;;;;4.43;2.60;;;14.40;99.90;;;;;;503732;236;28805;-73
2022/06/09 08:34:07;;;;;;;5.87;3.30;;;14.30;99.90;;;;;;503715;236;28783;-72
2022/06/09 08:36:08;;;;;;;5.83;2.80;;;14.30;99.90;;;;;;503746;236;28794;-73
2022/06/09 08:38:09;;;;;;;4.57;2.83;;;14.30;99.90;;;;;;503773;236;28855;-74
2022/06/09 08:40:10;;;;;;;5.03;2.83;;;14.20;99.90;;;;;;503724;236;28811;-73
2022/06/09 08:42:12;;;;;;;5.50;2.43;;;14.20;99.90;;;;;;503719;236;28818;-72
2022/06/09 08:44:13;;;;;;;4.10;2.60;;;14.30;99.90;;;;;;503727;236;28771;-73
2022/06/09 08:46:14;;;;;;;5.73;2.73;;;14.50;99.90;;;;;;503721;236;29289;-72
2022/06/09 08:48:15;;;;;;;4.33;2.33;;;14.60;99.90;;;;;;503764;236;29377;-74
2022/06/09 08:50:17;;;;;;;5.83;2.30;;;14.80;99.90;;;;;;503720;236;29294;-73
2022/06/09 08:52:18;;;;;;;5.40;2.50;;;15.10;99.90;;;;;;503650;236;29315;-73
2022/06/09 08:54:19;;;;;;;6.93;2.23;;;15.20;99.90;;;;;;503674;236;28818;-72
2022/06/09 08:56:21;;;;;;;3.93;1.97;;;15.40;99.90;;;;;;503681;236;28792;-73
2022/06/09 08:58:22;;;;;;;4.00;2.30;;;15.40;99.90;;;;;;503682;236;28850;-74
2022/06/09 09:00:23;;;;;;;7.77;2.40;;;15.30;99.90;;;;;;503675;236;28814;-72
2022/06/09 09:02:24;;;;;;;5.60;2.47;;;15.30;99.90;;;;;;503703;236;28806;-73
2022/06/09 09:04:25;;;;;;;6.50;3.03;;;15.30;99.90;;;;;;501405;236;28848;-72
2022/06/09 09:06:27;;;;;;;5.73;2.77;;;15.30;99.90;;;;;;497165;239;28813;-73
2022/06/09 09:08:28;;;;;;;6.13;3.00;;;15.10;99.90;;;;;;497231;239;28807;-74
2022/06/09 09:10:31;;;;;;;4.73;2.93;;;15.10;99.90;;;;;;497203;239;29212;-72
2022/06/09 09:12:30;;;;;;;6.30;2.90;;;14.90;99.90;;;;;;497090;239;29251;-72
2022/06/09 09:14:32;;;;;;;3.90;2.90;;;14.80;99.90;;;;;;497183;239;29225;-73
2022/06/09 09:16:33;;;;;;;3.57;2.37;;;15.00;99.90;;;;;;497140;239;29243;-73
2022/06/09 09:18:38;;;;;;;2.90;2.70;;;15.10;99.90;;;;;;497200;239;28903;-75
2022/06/09 09:20:35;;;;;;;3.73;2.50;;;15.30;99.90;;;;;;496991;239;28862;-73
2022/06/09 09:22:37;;;;;;;3.97;2.40;;;15.50;99.90;;;;;;497195;239;28866;-73
2022/06/09 09:24:38;;;;;;;4.20;2.70;;;15.30;99.90;;;;;;497201;239;28784;-72
2022/06/09 09:26:39;;;;;;;4.53;2.63;;;15.30;99.90;;;;;;497204;239;28811;-74
2022/06/09 09:28:41;;;;;;;3.33;2.40;;;15.40;99.90;;;;;;494994;239;35965;-75
2022/06/09 09:30:42;;;;;;;5.83;2.87;;;15.60;99.90;;;;;;497214;239;27469;-73
2022/06/09 09:32:43;;;;;;;4.40;2.30;;;15.40;99.90;;;;;;497163;239;28934;-73
2022/06/09 09:34:44;;;;;;;3.17;2.10;;;15.30;99.90;;;;;;497211;239;28790;-72
2022/06/09 09:36:46;;;;;;;4.80;2.40;;;15.50;99.90;;;;;;497220;239;29322;-73
2022/06/09 09:38:47;;;;;;;14.10;2.87;;;15.30;99.90;;;;;;497220;239;29261;-74
2022/06/09 09:40:48;;;;;;;4.47;2.60;;;15.30;99.90;;;;;;497248;239;29228;-73
2022/06/09 09:42:49;;;;;;;5.20;2.10;;;15.50;99.90;;;;;;497198;239;28827;-73
2022/06/09 09:44:50;;;;;;;5.10;2.40;;;15.50;99.90;;;;;;497276;239;28802;-72
2022/06/09 09:46:52;;;;;;;3.00;2.37;;;15.80;99.90;;;;;;497221;239;28801;-72
2022/06/09 09:48:53;;;;;;;4.73;2.70;;;15.90;99.90;;;;;;497136;239;28808;-74
2022/06/09 09:50:54;;;;;;;6.03;2.47;;;15.90;99.90;;;;;;497233;239;28768;-72
2022/06/09 09:52:55;;;;;;;4.77;2.60;;;15.80;99.90;;;;;;497210;239;28820;-72
2022/06/09 09:54:57;;;;;;;4.03;2.10;;;15.80;99.90;;;;;;497196;239;28898;-72
2022/06/09 09:56:58;;;;;;;3.07;2.20;;;16.00;99.90;;;;;;497171;239;28840;-72
2022/06/09 09:58:59;;;;;;;5.57;2.73;;;16.00;99.90;;;;;;497171;239;28892;-74
2022/06/09 10:01:00;;;;;;;7.03;2.50;;;15.90;99.90;;;;;;497218;239;29225;-71
2022/06/09 10:10:00;;;;;;;4.93;3.13;;;16.10;99.90;;;;;;497198;238;28807;-72
2022/06/09 10:12:02;;;;;;;6.30;2.50;;;16.40;99.90;;;;;;497232;239;29139;-73
2022/06/09 10:14:03;;;;;;;11.10;2.77;;;16.30;99.90;;;;;;497163;239;28847;-73
2022/06/09 10:16:04;;;;;;;2.50;2.30;;;16.50;99.90;;;;;;497186;239;28842;-73
2022/06/09 10:18:10;;;;;;;5.10;2.33;;;16.20;99.90;;;;;;497205;239;28856;-72
2022/06/09 10:20:06;;;;;;;4.07;2.00;;;16.10;99.90;;;;;;496807;239;29238;-73
2022/06/09 10:22:08;;;;;;;3.63;2.63;;;16.10;99.90;;;;;;497193;239;29291;-74
2022/06/09 10:24:09;;;;;;;6.20;3.50;;;16.40;99.90;;;;;;497187;239;29370;-72
2022/06/09 10:26:11;;;;;;;3.33;3.03;;;16.10;99.90;;;;;;497152;239;29317;-73
2022/06/09 10:28:11;;;;;;;5.63;3.17;;;16.20;99.90;;;;;;497138;239;28764;-73
2022/06/09 10:30:13;;;;;;;4.03;2.90;;;16.30;99.90;;;;;;497170;239;28790;-73
2022/06/09 10:32:14;;;;;;;4.17;2.80;;;16.30;99.90;;;;;;497178;239;28800;-74
2022/06/09 10:34:15;;;;;;;5.33;2.30;;;16.50;99.90;;;;;;497204;239;28746;-72
2022/06/09 10:36:16;;;;;;;4.10;2.00;;;16.50;99.90;;;;;;497181;239;28910;-72
2022/06/09 10:38:18;;;;;;;2.50;2.30;;;16.60;99.90;;;;;;497167;239;28769;-72
2022/06/09 10:40:19;;;;;;;3.73;2.53;;;16.60;99.90;;;;;;497210;239;28807;-73
2022/06/09 10:42:20;;;;;;;5.27;2.30;;;16.40;99.90;;;;;;497177;239;28891;-74
2022/06/09 10:44:21;;;;;;;6.07;2.23;;;16.50;99.90;;;;;;497206;239;28768;-72
2022/06/09 10:46:23;;;;;;;4.80;2.00;;;16.40;99.90;;;;;;497193;239;29327;-73
2022/06/09 10:55:24;;;;;;;2.77;2.13;;;16.10;99.90;;;;;;497211;238;29335;-73
2022/06/09 10:57:24;;;;;;;3.40;2.23;;;16.60;99.90;;;;;;497141;239;29225;-72